Weather at Augusto C. Sandino (Managua) International Airport

Public forecast

Using degrees Celsius for public forecast. Weather courtesy of forecast.io.

Current aviation weather report (METAR) for Augusto C. Sandino (Managua) International Airport

2024/05/19 21:00 (retrieved 25 minutes ago)

MNMG 192100Z 11008KT 9999 FEW022 37/20 Q1006 A2971 NOSIG

Aviation forecast (TAF) for Augusto C. Sandino (Managua) International Airport

Forecast is more than 6 hours old.

2024/05/19 12:39 (retrieved 9 hours ago)

TAF MNMG 191021Z 1912/2012 09012KT 9999 FEW025 PROB30 TEMPO 2000/2006 11004KT 8000 -DZ/-TSRA FEW022CB SCT070